createdAt,value
2019-02-07T00:01:26.717Z,14.50
2019-02-07T00:03:56.079Z,14.77
2019-02-07T00:06:25.622Z,15.27
2019-02-07T00:08:54.578Z,15.47
2019-02-07T00:11:24.218Z,16.33
2019-02-07T00:13:53.450Z,15.00
2019-02-07T00:16:23.327Z,14.57
2019-02-07T00:18:52.631Z,13.60
2019-02-07T00:21:22.342Z,15.13
2019-02-07T00:23:51.840Z,13.77
2019-02-07T00:26:21.138Z,15.57
2019-02-07T00:28:50.646Z,13.80
2019-02-07T00:31:20.262Z,14.83
2019-02-07T00:33:49.451Z,13.83
2019-02-07T00:36:18.955Z,13.13
2019-02-07T00:38:48.511Z,13.40
2019-02-07T00:41:17.794Z,13.93
2019-02-07T00:43:47.058Z,13.60
2019-02-07T00:46:16.816Z,15.07
2019-02-07T00:48:46.061Z,14.77
2019-02-07T00:51:15.362Z,13.97
2019-02-07T00:53:44.562Z,14.57
2019-02-07T00:56:13.858Z,15.93
2019-02-07T00:58:43.063Z,14.47
2019-02-07T01:01:12.756Z,15.40
2019-02-07T01:03:41.706Z,15.67
2019-02-07T01:06:11.054Z,15.47
2019-02-07T01:08:40.250Z,13.27
2019-02-07T01:11:09.281Z,14.67
2019-02-07T01:13:38.851Z,14.43
2019-02-07T01:16:08.463Z,14.03
2019-02-07T01:18:37.499Z,13.87
2019-02-07T01:21:06.678Z,13.90
2019-02-07T01:23:36.377Z,14.27
2019-02-07T01:26:06.171Z,13.77
2019-02-07T01:28:35.222Z,14.27
2019-02-07T01:31:04.573Z,14.80
2019-02-07T01:33:33.775Z,14.37
2019-02-07T01:36:02.654Z,14.27
2019-02-07T01:38:31.561Z,13.40
2019-02-07T01:41:00.463Z,14.80
2019-02-07T01:43:29.492Z,15.13
2019-02-07T01:45:59.320Z,14.70
2019-02-07T01:48:28.525Z,14.43
2019-02-07T01:50:57.536Z,15.43
2019-02-07T01:53:26.706Z,15.13
2019-02-07T01:55:55.511Z,13.97
2019-02-07T01:58:25.098Z,14.63
2019-02-07T02:00:54.615Z,15.07
2019-02-07T02:03:24.118Z,14.63
2019-02-07T02:05:53.073Z,12.47
2019-02-07T02:08:22.402Z,13.60
2019-02-07T02:10:51.394Z,15.10
2019-02-07T02:13:20.347Z,13.97
2019-02-07T02:15:49.705Z,14.17
2019-02-07T02:18:18.834Z,14.50
2019-02-07T02:20:47.816Z,13.37
2019-02-07T02:23:16.793Z,13.97
2019-02-07T02:25:45.751Z,14.00
2019-02-07T02:28:14.617Z,13.47
2019-02-07T02:30:44.252Z,14.17
2019-02-07T02:33:13.145Z,13.23
2019-02-07T02:35:42.150Z,13.43
2019-02-07T02:38:10.995Z,13.33
2019-02-07T02:40:40.025Z,12.00
2019-02-07T02:43:09.258Z,12.23
2019-02-07T02:45:38.419Z,12.37
2019-02-07T02:48:07.522Z,13.17
2019-02-07T02:50:37.008Z,11.90
2019-02-07T02:53:06.311Z,12.10
2019-02-07T02:55:37.945Z,13.47
2019-02-07T02:58:07.471Z,12.63
2019-02-07T03:00:54.234Z,14.47
2019-02-07T03:03:41.024Z,12.53
2019-02-07T03:06:47.458Z,13.33
2019-02-07T03:09:34.786Z,12.83
2019-02-07T03:12:38.565Z,11.20
2019-02-07T03:15:27.185Z,11.17
2019-02-07T03:18:10.062Z,12.27
2019-02-07T03:21:01.176Z,12.83
2019-02-07T03:23:45.968Z,11.57
2019-02-07T03:26:52.969Z,11.77
2019-02-07T03:29:41.855Z,12.47
2019-02-07T03:32:22.027Z,12.23
2019-02-07T03:35:10.562Z,12.27
2019-02-07T03:37:58.223Z,13.00
2019-02-07T03:40:41.744Z,11.77
2019-02-07T03:43:29.814Z,12.30
2019-02-07T03:46:07.062Z,12.07
2019-02-07T03:48:54.083Z,11.53
2019-02-07T03:51:41.532Z,12.23
2019-02-07T03:54:20.839Z,12.50
2019-02-07T03:57:19.333Z,11.23
2019-02-07T04:00:01.726Z,10.57
2019-02-07T04:02:48.746Z,11.43
2019-02-07T04:05:40.983Z,10.63
2019-02-07T04:08:29.333Z,11.93
2019-02-07T04:11:20.413Z,12.53
2019-02-07T04:13:57.631Z,11.83
2019-02-07T04:16:48.491Z,10.30
2019-02-07T04:19:45.868Z,12.47
2019-02-07T04:22:40.062Z,11.07
2019-02-07T04:25:26.679Z,11.23
2019-02-07T04:28:17.472Z,11.90
2019-02-07T04:31:18.211Z,11.83
2019-02-07T04:33:57.138Z,12.57
2019-02-07T04:36:44.558Z,10.40
2019-02-07T04:39:22.291Z,13.03
2019-02-07T04:42:01.205Z,12.93
2019-02-07T04:45:04.485Z,12.50
2019-02-07T04:47:45.862Z,11.93
2019-02-07T04:50:32.871Z,14.00
2019-02-07T04:53:30.087Z,11.53
2019-02-07T04:56:18.083Z,14.07
2019-02-07T04:58:55.965Z,13.07
2019-02-07T05:01:53.129Z,15.03
2019-02-07T05:04:50.148Z,12.00
2019-02-07T05:07:44.035Z,11.87
2019-02-07T05:10:31.802Z,13.80
2019-02-07T05:13:32.502Z,12.93
2019-02-07T05:16:21.378Z,12.97
2019-02-07T05:19:18.173Z,12.23
2019-02-07T05:22:06.686Z,14.00
2019-02-07T05:24:55.781Z,14.87
2019-02-07T05:27:46.026Z,12.00
2019-02-07T05:30:32.647Z,13.67
2019-02-07T05:33:25.938Z,13.00
2019-02-07T05:36:14.427Z,12.53
2019-02-07T05:39:16.838Z,12.47
2019-02-07T05:41:56.083Z,14.37
2019-02-07T05:44:46.779Z,12.70
2019-02-07T05:47:39.443Z,14.97
2019-02-07T05:50:28.057Z,13.70
2019-02-07T05:53:16.099Z,15.17
2019-02-07T05:56:13.799Z,14.10
2019-02-07T05:58:59.572Z,14.57
2019-02-07T06:01:52.750Z,12.90
2019-02-07T06:04:41.788Z,13.83
2019-02-07T06:07:39.104Z,13.73
2019-02-07T06:10:37.961Z,12.47
2019-02-07T06:13:18.978Z,14.07
2019-02-07T06:16:07.281Z,14.33
2019-02-07T06:19:06.207Z,13.73
2019-02-07T06:21:42.901Z,13.70
2019-02-07T06:24:33.918Z,13.97
2019-02-07T06:27:22.443Z,14.50
2019-02-07T06:30:00.037Z,15.23
2019-02-07T06:33:03.346Z,13.30
2019-02-07T06:35:40.503Z,14.83
2019-02-07T06:38:28.490Z,14.13
2019-02-07T06:41:13.726Z,16.27
2019-02-07T06:44:04.466Z,16.00
2019-02-07T06:46:53.382Z,13.80
2019-02-07T06:49:40.292Z,15.13
2019-02-07T06:52:28.915Z,16.37
2019-02-07T06:55:16.048Z,16.17
2019-02-07T06:57:57.054Z,14.17
2019-02-07T07:00:44.055Z,15.70
2019-02-07T07:03:32.714Z,16.70
2019-02-07T07:06:23.927Z,15.93
2019-02-07T07:09:05.306Z,15.77
2019-02-07T07:11:50.990Z,15.57
2019-02-07T07:14:32.674Z,15.80
2019-02-07T07:17:25.402Z,16.13
2019-02-07T07:20:09.131Z,16.90
2019-02-07T07:22:56.287Z,16.57
2019-02-07T07:25:44.279Z,17.37
2019-02-07T07:28:25.401Z,17.97
2019-02-07T07:31:12.714Z,17.80
2019-02-07T07:34:06.287Z,17.07
2019-02-07T07:37:06.351Z,16.80
2019-02-07T07:39:55.171Z,20.90
2019-02-07T07:42:58.394Z,17.73
2019-02-07T07:45:44.854Z,18.83
2019-02-07T07:48:32.203Z,21.07
2019-02-07T07:51:27.073Z,29.20
2019-02-07T07:54:15.323Z,20.83
2019-02-07T07:57:10.335Z,21.17
2019-02-07T07:59:51.397Z,19.03
2019-02-07T08:02:38.214Z,18.67
2019-02-07T08:05:16.718Z,16.83
2019-02-07T08:08:17.034Z,19.23
2019-02-07T08:10:57.614Z,17.73
2019-02-07T08:13:48.722Z,16.87
2019-02-07T08:16:41.989Z,18.33
2019-02-07T08:19:30.055Z,16.90
2019-02-07T08:22:08.031Z,18.37
2019-02-07T08:25:08.536Z,18.17
2019-02-07T08:28:02.922Z,19.80
2019-02-07T08:30:40.635Z,17.60
2019-02-07T08:33:27.766Z,17.73
2019-02-07T08:36:25.622Z,16.87
2019-02-07T08:39:13.979Z,17.67
2019-02-07T08:41:53.819Z,17.23
2019-02-07T08:44:55.510Z,18.40
2019-02-07T08:47:58.432Z,18.87
2019-02-07T08:50:56.028Z,17.47
2019-02-07T08:53:50.158Z,20.00
2019-02-07T08:56:38.966Z,17.33
2019-02-07T08:59:33.350Z,16.93
2019-02-07T09:02:37.278Z,16.47
2019-02-07T09:05:38.217Z,16.10
2019-02-07T09:08:33.242Z,18.40
2019-02-07T09:11:20.498Z,17.60
2019-02-07T09:14:07.140Z,17.40
2019-02-07T09:16:54.255Z,19.53
2019-02-07T09:19:46.186Z,17.73
2019-02-07T09:22:33.386Z,17.77
2019-02-07T09:25:34.470Z,17.97
2019-02-07T09:28:21.854Z,18.87
2019-02-07T09:31:10.223Z,17.87
2019-02-07T09:34:05.827Z,19.03
2019-02-07T09:36:52.748Z,18.93
2019-02-07T09:39:31.875Z,18.03
2019-02-07T09:42:27.499Z,17.17
2019-02-07T09:45:10.770Z,17.20
2019-02-07T09:48:09.100Z,17.57
2019-02-07T09:50:50.366Z,16.83
2019-02-07T09:53:31.762Z,16.33
2019-02-07T09:56:20.818Z,16.97
2019-02-07T09:59:14.903Z,15.37
2019-02-07T10:01:51.831Z,18.50
2019-02-07T10:04:38.591Z,17.50
2019-02-07T10:07:29.593Z,17.07
2019-02-07T10:10:16.198Z,17.23
2019-02-07T10:13:23.083Z,16.40
2019-02-07T10:16:07.846Z,17.37
2019-02-07T10:18:53.323Z,17.43
2019-02-07T10:21:37.258Z,17.10
2019-02-07T10:24:25.339Z,16.57
2019-02-07T10:27:20.506Z,16.90
2019-02-07T10:30:02.214Z,16.47
2019-02-07T10:32:45.930Z,17.53
2019-02-07T10:35:39.785Z,18.17
2019-02-07T10:38:27.793Z,17.17
2019-02-07T10:41:14.458Z,17.83
2019-02-07T10:43:49.994Z,18.83
2019-02-07T10:46:47.567Z,17.00
2019-02-07T10:49:40.614Z,18.60
2019-02-07T10:52:28.670Z,17.80
2019-02-07T10:55:09.620Z,18.83
2019-02-07T10:57:48.863Z,17.43
2019-02-07T11:00:41.811Z,17.97
2019-02-07T11:03:26.506Z,18.57
2019-02-07T11:06:13.486Z,18.70
2019-02-07T11:09:13.682Z,17.87
2019-02-07T11:11:54.071Z,17.50
2019-02-07T11:14:45.330Z,18.77
2019-02-07T11:17:32.006Z,18.60
2019-02-07T11:20:19.039Z,17.13
2019-02-07T11:23:05.811Z,17.80
2019-02-07T11:25:53.074Z,16.57
2019-02-07T11:28:50.201Z,17.77
2019-02-07T11:31:39.493Z,17.30
2019-02-07T11:34:35.662Z,18.37
2019-02-07T11:37:27.013Z,16.97
2019-02-07T11:40:21.337Z,17.87
2019-02-07T11:43:02.562Z,20.70
2019-02-07T11:45:49.160Z,17.30
2019-02-07T11:48:34.994Z,18.33
2019-02-07T11:51:26.254Z,18.87
2019-02-07T11:54:26.538Z,17.73
2019-02-07T11:57:20.915Z,17.67
2019-02-07T12:00:07.781Z,17.83
2019-02-07T12:02:47.617Z,17.80
2019-02-07T12:05:37.319Z,17.20
2019-02-07T12:08:20.853Z,17.67
2019-02-07T12:11:14.621Z,17.90
2019-02-07T12:13:59.550Z,17.67
2019-02-07T12:16:41.385Z,18.73
2019-02-07T12:19:27.983Z,17.63
2019-02-07T12:22:16.387Z,17.80
2019-02-07T12:25:19.887Z,17.20
2019-02-07T12:28:11.882Z,19.03
2019-02-07T12:30:58.394Z,19.30
2019-02-07T12:33:52.471Z,19.40
2019-02-07T12:36:40.700Z,18.33
2019-02-07T12:39:44.642Z,19.57
2019-02-07T12:42:26.601Z,20.17
2019-02-07T12:45:23.949Z,18.10
2019-02-07T12:48:06.050Z,19.87
2019-02-07T12:50:52.877Z,18.63
2019-02-07T12:53:39.699Z,19.17
2019-02-07T12:56:40.247Z,19.37
2019-02-07T12:59:30.605Z,19.27
2019-02-07T13:02:09.722Z,19.30
2019-02-07T13:05:00.551Z,21.63
2019-02-07T13:08:04.946Z,20.33
2019-02-07T13:10:55.475Z,18.67
2019-02-07T13:13:49.913Z,19.57
2019-02-07T13:16:37.554Z,20.10
2019-02-07T13:19:24.173Z,19.83
2019-02-07T13:22:19.333Z,19.33
2019-02-07T13:25:26.704Z,20.97
2019-02-07T13:28:20.754Z,19.60
2019-02-07T13:31:07.709Z,19.67
2019-02-07T13:34:05.084Z,18.83
2019-02-07T13:36:48.352Z,20.33
2019-02-07T13:39:49.548Z,21.10
2019-02-07T13:42:46.639Z,19.47
2019-02-07T13:45:29.386Z,20.93
2019-02-07T13:48:09.771Z,21.17
2019-02-07T13:51:12.884Z,22.47
2019-02-07T13:53:48.650Z,22.40
2019-02-07T13:56:36.601Z,21.13
2019-02-07T13:59:23.337Z,21.80
2019-02-07T14:02:13.546Z,22.13
2019-02-07T14:04:59.294Z,21.70
2019-02-07T14:07:59.881Z,23.43
2019-02-07T14:10:53.946Z,22.37
2019-02-07T14:13:41.075Z,22.57
2019-02-07T14:16:28.270Z,23.03
2019-02-07T14:19:15.176Z,20.73
2019-02-07T14:22:09.434Z,24.57
2019-02-07T14:24:57.728Z,23.40
2019-02-07T14:27:44.486Z,23.97
2019-02-07T14:30:44.919Z,21.67
2019-02-07T14:33:39.107Z,23.23
2019-02-07T14:36:39.439Z,22.03
2019-02-07T14:39:25.156Z,24.13
2019-02-07T14:42:01.271Z,25.30
2019-02-07T14:44:52.421Z,25.37
2019-02-07T14:47:22.097Z,24.23
2019-02-07T14:49:51.198Z,24.90
2019-02-07T14:52:20.421Z,25.63
2019-02-07T14:54:49.308Z,24.93
2019-02-07T14:57:18.690Z,27.10
2019-02-07T14:59:48.238Z,26.20
2019-02-07T15:02:17.557Z,25.17
2019-02-07T15:04:46.403Z,26.73
2019-02-07T15:07:15.611Z,25.97
2019-02-07T15:09:45.078Z,27.13
2019-02-07T15:12:14.042Z,28.13
2019-02-07T15:14:43.048Z,30.07
2019-02-07T15:17:13.962Z,29.07
2019-02-07T15:19:42.851Z,27.30
2019-02-07T15:22:11.865Z,28.30
2019-02-07T15:24:40.830Z,51.60
2019-02-07T15:27:09.998Z,27.00
2019-02-07T15:29:38.788Z,27.90
2019-02-07T15:32:08.005Z,43.07
2019-02-07T15:34:36.875Z,25.10
2019-02-07T15:37:06.022Z,28.80
2019-02-07T15:39:34.985Z,28.10
2019-02-07T15:42:04.203Z,25.93
2019-02-07T15:44:33.749Z,26.50
2019-02-07T15:47:03.610Z,27.57
2019-02-07T15:49:33.103Z,26.23
2019-02-07T15:52:02.326Z,27.60
2019-02-07T15:54:31.242Z,27.50
2019-02-07T15:57:00.405Z,28.13
2019-02-07T15:59:40.639Z,28.23
2019-02-07T16:02:29.170Z,26.37
2019-02-07T16:04:58.667Z,25.97
2019-02-07T16:07:27.758Z,25.40
2019-02-07T16:09:57.011Z,26.83
2019-02-07T16:12:26.891Z,25.73
2019-02-07T16:14:56.165Z,27.00
2019-02-07T16:17:25.368Z,26.23
2019-02-07T16:19:54.610Z,26.53
2019-02-07T16:22:24.453Z,28.20
2019-02-07T16:24:54.118Z,26.33
2019-02-07T16:27:23.466Z,27.17
2019-02-07T16:29:52.558Z,26.47
2019-02-07T16:32:22.396Z,27.53
2019-02-07T16:34:51.640Z,26.53
2019-02-07T16:37:20.994Z,28.10
2019-02-07T16:39:50.572Z,27.60
2019-02-07T16:42:19.533Z,26.90
2019-02-07T16:44:48.758Z,27.43
2019-02-07T16:47:18.182Z,27.90
2019-02-07T16:49:47.403Z,26.80
2019-02-07T16:52:16.358Z,26.43
2019-02-07T16:54:45.549Z,27.20
2019-02-07T16:57:15.219Z,25.80
2019-02-07T16:59:44.703Z,27.37
2019-02-07T17:02:14.309Z,29.17
2019-02-07T17:04:43.537Z,30.23
2019-02-07T17:07:12.730Z,29.80
2019-02-07T17:09:46.925Z,28.57
2019-02-07T17:12:16.133Z,28.57
2019-02-07T17:14:45.379Z,30.93
2019-02-07T17:17:14.806Z,32.53
2019-02-07T17:19:44.387Z,30.10
2019-02-07T17:22:13.626Z,27.20
2019-02-07T17:24:43.326Z,27.73
2019-02-07T17:27:12.793Z,27.17
2019-02-07T17:29:42.230Z,27.43
2019-02-07T17:32:11.646Z,27.60
2019-02-07T17:34:40.718Z,27.57
2019-02-07T17:37:10.041Z,28.83
2019-02-07T17:39:38.829Z,27.70
2019-02-07T17:42:07.668Z,27.60
2019-02-07T17:44:36.938Z,27.70
2019-02-07T17:47:06.269Z,26.47
2019-02-07T17:49:35.458Z,28.53
2019-02-07T17:52:05.005Z,28.13
2019-02-07T17:54:34.232Z,27.73
2019-02-07T17:57:03.530Z,28.60
2019-02-07T17:59:32.983Z,26.43
2019-02-07T18:02:01.897Z,31.60
2019-02-07T18:04:30.891Z,31.30
2019-02-07T18:07:00.297Z,28.77
2019-02-07T18:09:29.405Z,34.33
2019-02-07T18:11:58.875Z,29.83
2019-02-07T18:14:28.901Z,28.37
2019-02-07T18:16:57.966Z,27.87
2019-02-07T18:19:27.035Z,26.73
2019-02-07T18:21:57.372Z,28.83
2019-02-07T18:24:26.555Z,26.70
2019-02-07T18:26:56.958Z,27.37
2019-02-07T18:29:25.883Z,29.53
2019-02-07T18:31:55.088Z,28.60
2019-02-07T18:34:24.037Z,28.33
2019-02-07T18:36:53.225Z,29.07
2019-02-07T18:39:22.453Z,29.47
2019-02-07T18:41:52.088Z,28.47
2019-02-07T18:44:21.748Z,26.47
2019-02-07T18:46:50.638Z,27.53
2019-02-07T18:49:19.452Z,26.27
2019-02-07T18:51:48.451Z,25.60
2019-02-07T18:54:18.079Z,26.67
2019-02-07T18:56:47.615Z,26.67
2019-02-07T18:59:16.803Z,27.80
2019-02-07T19:01:45.898Z,26.47
2019-02-07T19:04:15.622Z,25.70
2019-02-07T19:06:44.646Z,25.57
2019-02-07T19:09:13.886Z,24.87
2019-02-07T19:11:43.063Z,25.70
2019-02-07T19:14:12.605Z,27.53
2019-02-07T19:16:42.174Z,29.00
2019-02-07T19:19:11.406Z,28.40
2019-02-07T19:21:40.980Z,26.73
2019-02-07T19:24:10.487Z,27.23
2019-02-07T19:26:39.690Z,26.17
2019-02-07T19:29:09.189Z,27.60
2019-02-07T19:31:38.378Z,26.17
2019-02-07T19:34:07.646Z,29.37
2019-02-07T19:36:36.953Z,27.20
2019-02-07T19:39:09.665Z,24.67
2019-02-07T19:41:38.920Z,26.10
2019-02-07T19:44:08.926Z,27.60
2019-02-07T19:46:38.849Z,26.70
2019-02-07T19:49:08.391Z,26.17
2019-02-07T19:51:41.298Z,26.17
2019-02-07T19:54:10.816Z,27.57
2019-02-07T19:56:39.978Z,25.23
2019-02-07T19:59:09.269Z,26.27
2019-02-07T20:01:38.253Z,27.83
2019-02-07T20:04:07.389Z,25.97
2019-02-07T20:06:36.479Z,27.73
2019-02-07T20:09:11.589Z,28.23
2019-02-07T20:11:41.082Z,26.63
2019-02-07T20:14:10.236Z,27.03
2019-02-07T20:16:39.563Z,28.43
2019-02-07T20:19:08.618Z,29.97
2019-02-07T20:21:38.053Z,28.03
2019-02-07T20:24:07.219Z,30.87
2019-02-07T20:26:36.390Z,31.37
2019-02-07T20:29:05.950Z,27.93
2019-02-07T20:31:35.118Z,30.13
2019-02-07T20:34:04.074Z,28.83
2019-02-07T20:36:32.919Z,27.17
2019-02-07T20:39:02.242Z,26.73
2019-02-07T20:41:34.401Z,27.87
2019-02-07T20:44:17.305Z,28.37
2019-02-07T20:46:47.672Z,25.77
2019-02-07T20:49:16.886Z,26.77
2019-02-07T20:51:48.783Z,25.93
2019-02-07T20:54:17.706Z,26.83
2019-02-07T20:56:46.906Z,27.77
2019-02-07T20:59:16.518Z,27.70
2019-02-07T21:01:45.763Z,28.43
2019-02-07T21:04:15.303Z,27.83
2019-02-07T21:06:44.442Z,28.50
2019-02-07T21:09:13.366Z,30.00
2019-02-07T21:11:42.790Z,28.93
2019-02-07T21:14:11.993Z,28.53
2019-02-07T21:16:41.594Z,30.43
2019-02-07T21:19:10.846Z,28.87
2019-02-07T21:21:42.622Z,30.27
2019-02-07T21:24:11.798Z,28.27
2019-02-07T21:26:41.279Z,31.37
2019-02-07T21:29:10.190Z,32.27
2019-02-07T21:31:39.763Z,29.90
2019-02-07T21:34:08.636Z,31.53
2019-02-07T21:36:37.543Z,30.03
2019-02-07T21:39:10.881Z,31.47
2019-02-07T21:41:40.401Z,30.47
2019-02-07T21:44:09.614Z,31.17
2019-02-07T21:46:39.703Z,30.50
2019-02-07T21:49:09.002Z,32.80
2019-02-07T21:51:38.427Z,32.03
2019-02-07T21:54:07.351Z,31.87
2019-02-07T21:56:36.263Z,30.40
2019-02-07T21:59:05.469Z,30.47
2019-02-07T22:01:34.889Z,32.70
2019-02-07T22:04:04.159Z,31.60
2019-02-07T22:06:33.261Z,30.93
2019-02-07T22:09:03.297Z,32.97
2019-02-07T22:11:32.123Z,29.53
2019-02-07T22:14:01.550Z,29.43
2019-02-07T22:16:30.508Z,29.93
2019-02-07T22:19:00.153Z,30.10
2019-02-07T22:21:29.369Z,28.77
2019-02-07T22:23:58.438Z,28.20
2019-02-07T22:26:27.890Z,29.37
2019-02-07T22:28:56.981Z,30.83
2019-02-07T22:31:26.562Z,30.80
2019-02-07T22:33:56.278Z,31.37
2019-02-07T22:36:25.366Z,32.13
2019-02-07T22:38:54.613Z,34.67
2019-02-07T22:41:24.034Z,32.73
2019-02-07T22:43:53.742Z,31.57
2019-02-07T22:46:23.144Z,32.27
2019-02-07T22:48:52.954Z,30.47
2019-02-07T22:51:22.193Z,31.60
2019-02-07T22:53:51.363Z,32.40
2019-02-07T22:56:20.229Z,34.57
2019-02-07T22:58:49.806Z,32.77
2019-02-07T23:01:45.148Z,34.00
2019-02-07T23:04:14.757Z,31.27
2019-02-07T23:06:43.697Z,34.27
2019-02-07T23:09:14.817Z,31.17
2019-02-07T23:11:43.696Z,30.50
2019-02-07T23:14:13.806Z,29.43
2019-02-07T23:16:43.086Z,29.50
2019-02-07T23:19:12.750Z,31.77
2019-02-07T23:21:42.007Z,32.37
2019-02-07T23:24:11.254Z,37.03
2019-02-07T23:26:40.440Z,37.20
2019-02-07T23:29:11.674Z,41.03
2019-02-07T23:31:41.112Z,38.93
2019-02-07T23:34:10.605Z,42.43
2019-02-07T23:36:39.870Z,41.47
2019-02-07T23:39:11.678Z,44.10
2019-02-07T23:41:40.580Z,39.47
2019-02-07T23:44:10.538Z,34.13
2019-02-07T23:46:39.715Z,42.17
2019-02-07T23:49:09.215Z,45.10
2019-02-07T23:51:38.406Z,45.37
2019-02-07T23:54:07.366Z,47.00
2019-02-07T23:56:36.370Z,48.90
2019-02-07T23:59:06.046Z,45.90
